sensor_id;sensor_type;location;lat;lon;timestamp;pressure;altitude;pressure_sealevel;temperature;humidity
75312;BME280;63906;55.686;37.532;2022-12-29T00:00:39;99288.97;;;0.39;82.36
75312;BME280;63906;55.686;37.532;2022-12-29T00:05:39;99277.50;;;0.32;82.05
75312;BME280;63906;55.686;37.532;2022-12-29T00:10:40;99286.22;;;0.31;81.57
75312;BME280;63906;55.686;37.532;2022-12-29T00:15:40;99258.91;;;0.08;80.63
75312;BME280;63906;55.686;37.532;2022-12-29T00:20:41;99295.97;;;0.18;80.75
75312;BME280;63906;55.686;37.532;2022-12-29T00:26:03;99295.44;;;0.14;78.76
75312;BME280;63906;55.686;37.532;2022-12-29T00:31:22;99297.38;;;-0.09;80.77
75312;BME280;63906;55.686;37.532;2022-12-29T00:36:42;99304.91;;;-0.06;80.01
75312;BME280;63906;55.686;37.532;2022-12-29T00:41:43;99282.16;;;-0.33;80.11
75312;BME280;63906;55.686;37.532;2022-12-29T00:47:03;99272.03;;;-0.45;80.11
75312;BME280;63906;55.686;37.532;2022-12-29T00:52:07;99292.19;;;-0.39;80.41
75312;BME280;63906;55.686;37.532;2022-12-29T00:57:09;99293.53;;;-0.45;80.51
75312;BME280;63906;55.686;37.532;2022-12-29T01:02:10;99293.50;;;-0.55;80.42
75312;BME280;63906;55.686;37.532;2022-12-29T01:07:10;99285.66;;;-0.43;79.53
75312;BME280;63906;55.686;37.532;2022-12-29T01:12:11;99321.00;;;-0.44;80.47
75312;BME280;63906;55.686;37.532;2022-12-29T01:17:12;99324.03;;;-0.39;79.57
75312;BME280;63906;55.686;37.532;2022-12-29T01:22:12;99307.88;;;-0.62;80.27
75312;BME280;63906;55.686;37.532;2022-12-29T01:27:13;99322.22;;;-0.69;80.71
75312;BME280;63906;55.686;37.532;2022-12-29T01:32:13;99309.09;;;-0.77;80.71
75312;BME280;63906;55.686;37.532;2022-12-29T01:37:14;99322.47;;;-0.72;80.33
75312;BME280;63906;55.686;37.532;2022-12-29T01:42:18;99313.59;;;-0.79;80.09
75312;BME280;63906;55.686;37.532;2022-12-29T01:47:36;99325.06;;;-0.72;80.03
75312;BME280;63906;55.686;37.532;2022-12-29T01:52:41;99318.94;;;-0.71;80.69
75312;BME280;63906;55.686;37.532;2022-12-29T01:57:46;99315.47;;;-0.81;80.67
75312;BME280;63906;55.686;37.532;2022-12-29T02:02:53;99315.69;;;-0.73;80.46
75312;BME280;63906;55.686;37.532;2022-12-29T02:07:54;99337.53;;;-0.77;81.03
75312;BME280;63906;55.686;37.532;2022-12-29T02:12:54;99319.31;;;-0.96;79.37
75312;BME280;63906;55.686;37.532;2022-12-29T02:39:09;99351.94;;;-0.95;79.19
75312;BME280;63906;55.686;37.532;2022-12-29T02:44:28;99329.22;;;-1.13;79.08
75312;BME280;63906;55.686;37.532;2022-12-29T02:54:48;99358.56;;;-1.14;80.34
75312;BME280;63906;55.686;37.532;2022-12-29T02:59:52;99356.13;;;-1.15;79.33
75312;BME280;63906;55.686;37.532;2022-12-29T03:10:55;99369.63;;;-1.12;80.31
75312;BME280;63906;55.686;37.532;2022-12-29T03:21:43;99370.44;;;-1.11;80.03
75312;BME280;63906;55.686;37.532;2022-12-29T03:27:05;99356.16;;;-1.38;80.75
75312;BME280;63906;55.686;37.532;2022-12-29T03:32:07;99387.91;;;-1.15;80.34
75312;BME280;63906;55.686;37.532;2022-12-29T03:37:12;99392.41;;;-1.17;80.87
75312;BME280;63906;55.686;37.532;2022-12-29T03:42:17;99370.63;;;-1.46;80.95
75312;BME280;63906;55.686;37.532;2022-12-29T03:47:19;99391.47;;;-1.38;81.71
75312;BME280;63906;55.686;37.532;2022-12-29T03:52:19;99374.81;;;-1.45;81.60
75312;BME280;63906;55.686;37.532;2022-12-29T03:57:20;99347.66;;;-1.72;81.26
75312;BME280;63906;55.686;37.532;2022-12-29T04:02:20;99410.47;;;-1.28;81.31
75312;BME280;63906;55.686;37.532;2022-12-29T04:07:21;99419.19;;;-1.29;80.59
75312;BME280;63906;55.686;37.532;2022-12-29T04:12:21;99403.69;;;-1.40;81.34
75312;BME280;63906;55.686;37.532;2022-12-29T04:17:22;99394.53;;;-1.44;81.43
75312;BME280;63906;55.686;37.532;2022-12-29T04:22:22;99414.00;;;-1.29;81.01
75312;BME280;63906;55.686;37.532;2022-12-29T04:27:23;99419.19;;;-1.40;80.95
75312;BME280;63906;55.686;37.532;2022-12-29T04:32:23;99429.25;;;-1.37;81.12
75312;BME280;63906;55.686;37.532;2022-12-29T04:37:24;99429.50;;;-1.40;81.70
75312;BME280;63906;55.686;37.532;2022-12-29T04:42:24;99414.16;;;-1.53;81.32
75312;BME280;63906;55.686;37.532;2022-12-29T04:47:25;99403.47;;;-1.59;82.04
75312;BME280;63906;55.686;37.532;2022-12-29T04:52:25;99438.41;;;-1.44;81.12
75312;BME280;63906;55.686;37.532;2022-12-29T04:57:26;99401.50;;;-1.67;80.60
75312;BME280;63906;55.686;37.532;2022-12-29T05:02:27;99433.28;;;-1.67;80.70
75312;BME280;63906;55.686;37.532;2022-12-29T05:07:27;99415.44;;;-1.92;81.50
75312;BME280;63906;55.686;37.532;2022-12-29T05:12:32;99427.63;;;-1.83;81.12
75312;BME280;63906;55.686;37.532;2022-12-29T05:17:33;99442.63;;;-1.77;81.49
75312;BME280;63906;55.686;37.532;2022-12-29T05:22:34;99442.03;;;-1.80;81.33
75312;BME280;63906;55.686;37.532;2022-12-29T05:27:35;99439.81;;;-1.85;81.44
75312;BME280;63906;55.686;37.532;2022-12-29T05:32:36;99461.53;;;-1.65;81.37
75312;BME280;63906;55.686;37.532;2022-12-29T05:37:36;99469.97;;;-1.52;80.76
75312;BME280;63906;55.686;37.532;2022-12-29T05:42:37;99450.16;;;-1.74;80.29
75312;BME280;63906;55.686;37.532;2022-12-29T05:47:37;99457.66;;;-1.71;80.11
75312;BME280;63906;55.686;37.532;2022-12-29T05:52:38;99436.50;;;-2.09;79.40
75312;BME280;63906;55.686;37.532;2022-12-29T05:57:38;99469.38;;;-1.78;80.39
75312;BME280;63906;55.686;37.532;2022-12-29T06:02:39;99457.41;;;-1.90;80.40
75312;BME280;63906;55.686;37.532;2022-12-29T06:07:40;99440.84;;;-1.87;80.49
75312;BME280;63906;55.686;37.532;2022-12-29T06:12:40;99476.31;;;-1.67;80.15
75312;BME280;63906;55.686;37.532;2022-12-29T06:17:41;99448.03;;;-1.80;80.17
75312;BME280;63906;55.686;37.532;2022-12-29T06:22:41;99450.63;;;-1.80;80.47
75312;BME280;63906;55.686;37.532;2022-12-29T06:27:42;99468.16;;;-1.96;78.99
75312;BME280;63906;55.686;37.532;2022-12-29T06:32:43;99474.84;;;-1.94;79.53
75312;BME280;63906;55.686;37.532;2022-12-29T06:37:44;99482.50;;;-1.70;81.21
75312;BME280;63906;55.686;37.532;2022-12-29T06:42:45;99480.66;;;-1.56;80.30
75312;BME280;63906;55.686;37.532;2022-12-29T06:47:45;99493.34;;;-1.42;79.77
75312;BME280;63906;55.686;37.532;2022-12-29T06:52:46;99493.22;;;-1.52;80.22
75312;BME280;63906;55.686;37.532;2022-12-29T06:57:46;99464.69;;;-1.84;78.94
75312;BME280;63906;55.686;37.532;2022-12-29T07:02:47;99497.09;;;-1.46;79.94
75312;BME280;63906;55.686;37.532;2022-12-29T07:07:47;99428.69;;;-1.85;81.09
75312;BME280;63906;55.686;37.532;2022-12-29T07:12:48;99490.50;;;-1.50;80.18
75312;BME280;63906;55.686;37.532;2022-12-29T07:17:48;99474.78;;;-1.58;78.13
75312;BME280;63906;55.686;37.532;2022-12-29T07:22:49;99480.66;;;-1.45;79.96
75312;BME280;63906;55.686;37.532;2022-12-29T07:27:50;99490.19;;;-1.34;77.50
75312;BME280;63906;55.686;37.532;2022-12-29T07:32:50;99473.16;;;-1.48;79.75
75312;BME280;63906;55.686;37.532;2022-12-29T07:37:51;99483.13;;;-1.44;80.18
75312;BME280;63906;55.686;37.532;2022-12-29T07:42:51;99501.19;;;-1.44;77.98
75312;BME280;63906;55.686;37.532;2022-12-29T07:47:52;99495.69;;;-1.39;79.53
75312;BME280;63906;55.686;37.532;2022-12-29T07:52:52;99514.34;;;-1.36;77.81
75312;BME280;63906;55.686;37.532;2022-12-29T07:57:54;99486.50;;;-1.43;77.76
75312;BME280;63906;55.686;37.532;2022-12-29T08:02:55;99512.34;;;-1.10;79.48
75312;BME280;63906;55.686;37.532;2022-12-29T08:07:55;99516.56;;;-0.97;78.50
75312;BME280;63906;55.686;37.532;2022-12-29T08:12:57;99501.28;;;-0.89;79.37
75312;BME280;63906;55.686;37.532;2022-12-29T08:17:58;99532.97;;;-0.87;74.26
75312;BME280;63906;55.686;37.532;2022-12-29T08:22:59;99525.25;;;-1.10;74.61
75312;BME280;63906;55.686;37.532;2022-12-29T08:27:59;99531.59;;;-0.80;78.36
75312;BME280;63906;55.686;37.532;2022-12-29T08:32:59;99531.13;;;-0.74;77.86
75312;BME280;63906;55.686;37.532;2022-12-29T08:38:00;99525.81;;;-0.84;78.49
75312;BME280;63906;55.686;37.532;2022-12-29T08:43:00;99524.78;;;-0.92;77.55
75312;BME280;63906;55.686;37.532;2022-12-29T08:48:01;99484.63;;;-1.19;77.97
75312;BME280;63906;55.686;37.532;2022-12-29T08:53:02;99518.56;;;-1.01;77.42
75312;BME280;63906;55.686;37.532;2022-12-29T08:58:03;99522.44;;;-0.84;77.89
75312;BME280;63906;55.686;37.532;2022-12-29T09:03:03;99494.50;;;-1.13;75.17
75312;BME280;63906;55.686;37.532;2022-12-29T09:08:04;99497.28;;;-0.82;77.90
75312;BME280;63906;55.686;37.532;2022-12-29T09:13:04;99514.06;;;-0.65;77.30
75312;BME280;63906;55.686;37.532;2022-12-29T09:18:06;99500.25;;;-0.87;75.62
75312;BME280;63906;55.686;37.532;2022-12-29T09:23:07;99522.63;;;-0.76;74.94
75312;BME280;63906;55.686;37.532;2022-12-29T09:28:07;99524.59;;;-0.57;75.73
75312;BME280;63906;55.686;37.532;2022-12-29T09:33:08;99512.44;;;-0.77;74.93
75312;BME280;63906;55.686;37.532;2022-12-29T09:38:09;99525.19;;;-0.53;77.32
75312;BME280;63906;55.686;37.532;2022-12-29T09:48:35;99492.25;;;-0.84;78.72
75312;BME280;63906;55.686;37.532;2022-12-29T09:53:41;99498.91;;;-0.81;78.45
75312;BME280;63906;55.686;37.532;2022-12-29T09:59:06;99508.34;;;-0.80;78.55
75312;BME280;63906;55.686;37.532;2022-12-29T10:04:10;99525.00;;;-0.95;76.73
75312;BME280;63906;55.686;37.532;2022-12-29T10:25:33;99494.97;;;-0.96;78.97
75312;BME280;63906;55.686;37.532;2022-12-29T10:30:37;99526.66;;;-0.94;75.46
75312;BME280;63906;55.686;37.532;2022-12-29T10:35:39;99496.59;;;-0.95;75.65
75312;BME280;63906;55.686;37.532;2022-12-29T10:45:48;99475.31;;;-0.88;78.75
75312;BME280;63906;55.686;37.532;2022-12-29T10:50:50;99523.56;;;-0.66;76.59
75312;BME280;63906;55.686;37.532;2022-12-29T10:55:54;99528.00;;;-0.57;78.39
75312;BME280;63906;55.686;37.532;2022-12-29T11:00:55;99496.56;;;-0.73;75.54
75312;BME280;63906;55.686;37.532;2022-12-29T11:06:10;99510.69;;;-0.45;76.15
75312;BME280;63906;55.686;37.532;2022-12-29T11:11:11;99499.16;;;-0.30;78.54
75312;BME280;63906;55.686;37.532;2022-12-29T11:16:12;99481.31;;;-0.44;77.36
75312;BME280;63906;55.686;37.532;2022-12-29T11:21:37;99499.69;;;-0.26;76.37
75312;BME280;63906;55.686;37.532;2022-12-29T11:26:43;99479.09;;;-0.37;76.24
75312;BME280;63906;55.686;37.532;2022-12-29T11:36:46;99496.09;;;-0.35;75.52
75312;BME280;63906;55.686;37.532;2022-12-29T11:41:51;99488.41;;;-0.25;77.54
75312;BME280;63906;55.686;37.532;2022-12-29T11:46:53;99490.88;;;-0.23;78.45
75312;BME280;63906;55.686;37.532;2022-12-29T11:51:55;99427.97;;;-0.77;76.60
75312;BME280;63906;55.686;37.532;2022-12-29T11:56:58;99512.38;;;-0.12;77.87
75312;BME280;63906;55.686;37.532;2022-12-29T12:02:02;99508.81;;;-0.11;79.58
75312;BME280;63906;55.686;37.532;2022-12-29T12:12:32;99531.88;;;-0.19;79.26
75312;BME280;63906;55.686;37.532;2022-12-29T12:27:57;99524.56;;;-0.14;77.44
75312;BME280;63906;55.686;37.532;2022-12-29T12:33:05;99523.75;;;-0.14;77.76
75312;BME280;63906;55.686;37.532;2022-12-29T13:15:50;99519.50;;;-0.04;78.11
75312;BME280;63906;55.686;37.532;2022-12-29T13:20:54;99513.22;;;-0.02;78.48
75312;BME280;63906;55.686;37.532;2022-12-29T13:26:12;99527.13;;;-0.03;78.57
75312;BME280;63906;55.686;37.532;2022-12-29T13:31:20;99495.66;;;-0.19;79.26
75312;BME280;63906;55.686;37.532;2022-12-29T13:37:15;99491.91;;;-0.15;79.13
75312;BME280;63906;55.686;37.532;2022-12-29T13:41:56;99499.47;;;-0.23;78.71
75312;BME280;63906;55.686;37.532;2022-12-29T13:47:01;99460.78;;;-0.57;77.90
75312;BME280;63906;55.686;37.532;2022-12-29T13:57:41;99508.19;;;-0.24;79.04
75312;BME280;63906;55.686;37.532;2022-12-29T14:07:59;99493.06;;;-0.40;79.31
75312;BME280;63906;55.686;37.532;2022-12-29T14:13:12;99505.44;;;-0.43;80.04
75312;BME280;63906;55.686;37.532;2022-12-29T14:28:24;99502.44;;;-0.39;80.59
75312;BME280;63906;55.686;37.532;2022-12-29T14:33:27;99521.97;;;-0.35;80.00
75312;BME280;63906;55.686;37.532;2022-12-29T14:38:30;99507.91;;;-0.21;80.24
75312;BME280;63906;55.686;37.532;2022-12-29T14:43:31;99494.97;;;-0.42;79.88
75312;BME280;63906;55.686;37.532;2022-12-29T14:48:36;99483.53;;;-0.39;79.25
75312;BME280;63906;55.686;37.532;2022-12-29T14:53:46;99516.94;;;-0.47;79.64
75312;BME280;63906;55.686;37.532;2022-12-29T14:58:51;99521.94;;;-0.03;80.41
75312;BME280;63906;55.686;37.532;2022-12-29T15:03:57;99504.63;;;-0.23;80.15
75312;BME280;63906;55.686;37.532;2022-12-29T15:09:04;99511.94;;;-0.28;79.79
75312;BME280;63906;55.686;37.532;2022-12-29T15:14:35;99528.03;;;0.08;81.08
75312;BME280;63906;55.686;37.532;2022-12-29T15:19:36;99497.78;;;-0.45;79.91
75312;BME280;63906;55.686;37.532;2022-12-29T15:24:41;99513.53;;;-0.16;80.51
75312;BME280;63906;55.686;37.532;2022-12-29T15:29:44;99522.94;;;-0.15;80.10
75312;BME280;63906;55.686;37.532;2022-12-29T15:34:51;99499.47;;;-0.23;80.40
75312;BME280;63906;55.686;37.532;2022-12-29T15:39:55;99498.34;;;-0.09;79.87
75312;BME280;63906;55.686;37.532;2022-12-29T15:44:56;99508.88;;;-0.01;79.99
75312;BME280;63906;55.686;37.532;2022-12-29T15:50:13;99501.06;;;0.10;81.05
75312;BME280;63906;55.686;37.532;2022-12-29T15:55:36;99464.78;;;0.01;80.98
75312;BME280;63906;55.686;37.532;2022-12-29T16:00:37;99490.25;;;-0.16;79.83
75312;BME280;63906;55.686;37.532;2022-12-29T16:05:39;99464.63;;;-0.19;79.25
75312;BME280;63906;55.686;37.532;2022-12-29T16:10:41;99474.69;;;-0.05;80.62
75312;BME280;63906;55.686;37.532;2022-12-29T16:15:47;99486.34;;;0.11;80.81
75312;BME280;63906;55.686;37.532;2022-12-29T16:20:48;99460.81;;;-0.04;80.16
75312;BME280;63906;55.686;37.532;2022-12-29T16:25:49;99474.56;;;-0.03;79.77
75312;BME280;63906;55.686;37.532;2022-12-29T16:30:58;99467.63;;;-0.03;81.24
75312;BME280;63906;55.686;37.532;2022-12-29T16:35:59;99439.53;;;-0.07;81.02
75312;BME280;63906;55.686;37.532;2022-12-29T16:41:02;99448.44;;;-0.21;80.58
75312;BME280;63906;55.686;37.532;2022-12-29T16:46:25;99466.88;;;0.07;81.04
75312;BME280;63906;55.686;37.532;2022-12-29T16:51:35;99428.56;;;0.01;80.72
75312;BME280;63906;55.686;37.532;2022-12-29T16:56:36;99454.69;;;-0.03;78.82
75312;BME280;63906;55.686;37.532;2022-12-29T17:01:43;99432.16;;;-0.12;79.82
75312;BME280;63906;55.686;37.532;2022-12-29T17:06:43;99430.44;;;-0.02;80.89
75312;BME280;63906;55.686;37.532;2022-12-29T17:11:46;99449.69;;;0.06;80.37
75312;BME280;63906;55.686;37.532;2022-12-29T17:16:58;99465.41;;;0.14;80.18
75312;BME280;63906;55.686;37.532;2022-12-29T17:22:01;99453.72;;;0.19;81.51
75312;BME280;63906;55.686;37.532;2022-12-29T17:27:03;99422.88;;;0.07;81.10
75312;BME280;63906;55.686;37.532;2022-12-29T17:32:06;99429.94;;;0.05;81.25
75312;BME280;63906;55.686;37.532;2022-12-29T17:42:22;99451.25;;;0.18;81.76
75312;BME280;63906;55.686;37.532;2022-12-29T17:47:23;99435.03;;;0.16;81.70
75312;BME280;63906;55.686;37.532;2022-12-29T17:52:23;99437.69;;;0.25;82.37
75312;BME280;63906;55.686;37.532;2022-12-29T17:57:24;99441.34;;;0.23;82.05
75312;BME280;63906;55.686;37.532;2022-12-29T18:02:27;99407.88;;;0.01;81.93
75312;BME280;63906;55.686;37.532;2022-12-29T18:07:29;99424.84;;;0.24;81.98
75312;BME280;63906;55.686;37.532;2022-12-29T18:12:36;99395.84;;;-0.01;82.67
75312;BME280;63906;55.686;37.532;2022-12-29T18:17:38;99408.03;;;0.09;82.63
75312;BME280;63906;55.686;37.532;2022-12-29T18:22:38;99401.97;;;-0.02;82.38
75312;BME280;63906;55.686;37.532;2022-12-29T18:27:39;99406.72;;;-0.07;82.33
75312;BME280;63906;55.686;37.532;2022-12-29T18:32:39;99428.00;;;-0.03;80.44
75312;BME280;63906;55.686;37.532;2022-12-29T18:37:40;99413.78;;;-0.09;81.32
75312;BME280;63906;55.686;37.532;2022-12-29T18:42:40;99424.09;;;-0.18;79.54
75312;BME280;63906;55.686;37.532;2022-12-29T18:47:41;99393.56;;;-0.24;80.81
75312;BME280;63906;55.686;37.532;2022-12-29T18:52:42;99421.19;;;-0.04;81.78
75312;BME280;63906;55.686;37.532;2022-12-29T18:57:46;99421.38;;;-0.17;79.56
75312;BME280;63906;55.686;37.532;2022-12-29T19:02:48;99427.41;;;-0.07;81.75
75312;BME280;63906;55.686;37.532;2022-12-29T19:07:49;99366.41;;;-0.51;81.05
75312;BME280;63906;55.686;37.532;2022-12-29T19:12:51;99409.91;;;-0.24;81.40
75312;BME280;63906;55.686;37.532;2022-12-29T19:17:53;99411.47;;;-0.12;81.69
75312;BME280;63906;55.686;37.532;2022-12-29T19:22:55;99407.81;;;-0.30;80.84
75312;BME280;63906;55.686;37.532;2022-12-29T19:27:56;99413.84;;;-0.20;81.10
75312;BME280;63906;55.686;37.532;2022-12-29T19:32:57;99397.66;;;-0.22;81.31
75312;BME280;63906;55.686;37.532;2022-12-29T19:37:58;99376.69;;;-0.19;79.93
75312;BME280;63906;55.686;37.532;2022-12-29T19:42:59;99382.56;;;-0.17;80.15
75312;BME280;63906;55.686;37.532;2022-12-29T19:47:59;99381.94;;;-0.09;81.31
75312;BME280;63906;55.686;37.532;2022-12-29T19:53:03;99382.25;;;-0.03;81.58
75312;BME280;63906;55.686;37.532;2022-12-29T19:58:06;99399.91;;;-0.08;79.52
75312;BME280;63906;55.686;37.532;2022-12-29T20:03:07;99392.34;;;0.01;81.33
75312;BME280;63906;55.686;37.532;2022-12-29T20:08:08;99389.31;;;-0.05;80.34
75312;BME280;63906;55.686;37.532;2022-12-29T20:13:08;99360.66;;;-0.13;81.77
75312;BME280;63906;55.686;37.532;2022-12-29T20:18:09;99360.00;;;-0.36;79.93
75312;BME280;63906;55.686;37.532;2022-12-29T20:23:09;99388.22;;;-0.02;81.45
75312;BME280;63906;55.686;37.532;2022-12-29T20:28:10;99365.53;;;-0.40;80.08
75312;BME280;63906;55.686;37.532;2022-12-29T20:33:11;99314.03;;;-0.53;81.58
75312;BME280;63906;55.686;37.532;2022-12-29T20:38:11;99347.00;;;-0.24;80.57
75312;BME280;63906;55.686;37.532;2022-12-29T20:43:13;99388.09;;;-0.01;80.54
75312;BME280;63906;55.686;37.532;2022-12-29T20:48:14;99367.19;;;-0.39;79.95
75312;BME280;63906;55.686;37.532;2022-12-29T20:53:14;99375.31;;;-0.23;81.33
75312;BME280;63906;55.686;37.532;2022-12-29T20:58:15;99359.81;;;-0.23;81.21
75312;BME280;63906;55.686;37.532;2022-12-29T21:03:16;99343.78;;;-0.17;81.91
75312;BME280;63906;55.686;37.532;2022-12-29T21:08:16;99324.41;;;-0.22;81.23
75312;BME280;63906;55.686;37.532;2022-12-29T21:13:17;99284.09;;;-0.56;81.20
75312;BME280;63906;55.686;37.532;2022-12-29T21:18:18;99332.84;;;0.01;82.65
75312;BME280;63906;55.686;37.532;2022-12-29T21:23:18;99341.97;;;0.05;82.67
75312;BME280;63906;55.686;37.532;2022-12-29T21:28:20;99333.25;;;0.06;81.84
75312;BME280;63906;55.686;37.532;2022-12-29T21:33:21;99310.84;;;-0.15;81.29
75312;BME280;63906;55.686;37.532;2022-12-29T21:38:21;99292.28;;;-0.20;81.50
75312;BME280;63906;55.686;37.532;2022-12-29T21:43:22;99300.47;;;-0.15;80.19
75312;BME280;63906;55.686;37.532;2022-12-29T21:48:22;99284.44;;;-0.39;79.83
75312;BME280;63906;55.686;37.532;2022-12-29T21:53:23;99293.69;;;-0.16;80.47
75312;BME280;63906;55.686;37.532;2022-12-29T21:58:38;99297.53;;;-0.01;81.31
75312;BME280;63906;55.686;37.532;2022-12-29T22:03:58;99287.31;;;-0.12;80.14
75312;BME280;63906;55.686;37.532;2022-12-29T22:09:17;99286.06;;;-0.08;80.81
75312;BME280;63906;55.686;37.532;2022-12-29T22:14:36;99315.19;;;-0.15;80.76
75312;BME280;63906;55.686;37.532;2022-12-29T22:19:36;99317.84;;;-0.27;80.30
75312;BME280;63906;55.686;37.532;2022-12-29T22:24:37;99311.09;;;-0.18;81.38
75312;BME280;63906;55.686;37.532;2022-12-29T22:29:38;99276.16;;;-0.33;80.45
75312;BME280;63906;55.686;37.532;2022-12-29T22:34:40;99280.28;;;-0.31;80.27
75312;BME280;63906;55.686;37.532;2022-12-29T22:39:41;99282.34;;;-0.24;79.72
75312;BME280;63906;55.686;37.532;2022-12-29T22:44:41;99282.75;;;-0.19;80.82
75312;BME280;63906;55.686;37.532;2022-12-29T22:49:42;99299.25;;;0.20;81.87
75312;BME280;63906;55.686;37.532;2022-12-29T22:54:48;99288.34;;;0.07;81.32
75312;BME280;63906;55.686;37.532;2022-12-29T22:59:55;99288.63;;;0.13;81.92
75312;BME280;63906;55.686;37.532;2022-12-29T23:04:56;99286.56;;;0.17;82.38
75312;BME280;63906;55.686;37.532;2022-12-29T23:09:57;99271.78;;;-0.12;80.64
75312;BME280;63906;55.686;37.532;2022-12-29T23:14:58;99279.69;;;-0.04;81.80
75312;BME280;63906;55.686;37.532;2022-12-29T23:19:58;99265.66;;;-0.11;81.56
75312;BME280;63906;55.686;37.532;2022-12-29T23:24:59;99298.56;;;-0.13;79.66
75312;BME280;63906;55.686;37.532;2022-12-29T23:29:59;99284.88;;;-0.04;81.32
75312;BME280;63906;55.686;37.532;2022-12-29T23:35:00;99284.97;;;-0.15;80.51
75312;BME280;63906;55.686;37.532;2022-12-29T23:40:00;99303.22;;;-0.16;80.40
75312;BME280;63906;55.686;37.532;2022-12-29T23:45:01;99274.63;;;-0.15;80.90
75312;BME280;63906;55.686;37.532;2022-12-29T23:50:01;99267.59;;;-0.03;81.12
75312;BME280;63906;55.686;37.532;2022-12-29T23:55:02;99282.63;;;0.13;80.44
